Atlanta, GA (30379)

1:22 AM EDT on May 28, 2015 (GMT -0400)
Georgia Tech (Midtown) | | Change Station
CLOSE
Current Station
Personal Weather Station
Location: Atlanta, GA
Elevation: 935 ft
Nearby Weather Stations

Elev 935 ft 33.78 °N, 84.40 °W | Updated 25 seconds ago

Thunderstorm
Thunderstorm
67.1 °F
Feels Like 67.1 °F
N
3.0
Wind Variable Wind from West
Gusts 4.0 mph

Today
High -- | Low -- °F
--% Chance of Precip.
Yesterday
High -- | Low -- °F
Precip. -- in
6:29 AM 8:40 PM
Waxing Gibbous, 73% visible
Pressure 30.25 in
Visibility 9.0 miles
Clouds Few 1500 ft
Mostly Cloudy 6000 ft
Overcast 10000 ft
Dew Point 63 °F
Humidity 88%
Rainfall 0.38 in
Snow Depth Not available.
UV 0 out of 12
Pollen .60 out of 12
Air Quality Not available.
Flu Activity Sporadic
SPECI KFTY 280500Z 32007KT 9SM VCTS -RA FEW015 BKN060 OVC100 19/18 A3025 RMK AO2 LTG DSNT E-SW TSE0454 P0001 T01940178

More Conditions Fewer Conditions

Pressure 30.25 in
Visibility 9.0 miles
Clouds Few 1500 ft
Mostly Cloudy 6000 ft
Overcast 10000 ft
Dew Point 63 °F
Humidity 88%
Rainfall 0.38 in
Snow Depth Not available.
UV 0 out of 12
Pollen .60 out of 12
Air Quality Not available.
Flu Activity Sporadic
SPECI KFTY 280500Z 32007KT 9SM VCTS -RA FEW015 BKN060 OVC100 19/18 A3025 RMK AO2 LTG DSNT E-SW TSE0454 P0001 T01940178

More Conditions Fewer Conditions

10-Day Weather Forecast

Almanac

Astronomy

May. 28, 2015 Rise Set
Actual Time
Civil Twilight
Nautical Twilight
Astronomical Twilight
Moon
Length of Visible Light
Length of Day
Tomorrow will be .
, % of the Moon is Illuminated

Today's Extremes

State Highs State Lows

Community

WunderPhotos

Upload Photos

1,824,927 photos uploaded!

WunderBlogs® & News

Nearby

Air Quality

  Air Quality AQ Index Pollutant
Not available.

Snow Depth

Station Depth Elevation

Earthquake Activity

City Distance Mag. Time & Date
Minimum magnitude displayed is 2.5.

Coastal Water Temperatures

Place Temperature

Stations

Nearby Weather Stations

Station Location Temp. Windchill Dew Point Humidity Wind Precip. Elev Updated Type